createdAt,value
2023-04-16T00:00:53.878Z,10.70
2023-04-16T00:03:24.452Z,10.30
2023-04-16T00:06:04.118Z,10.30
2023-04-16T00:08:35.900Z,10.50
2023-04-16T00:11:04.552Z,10.10
2023-04-16T00:13:35.653Z,10.20
2023-04-16T00:16:03.884Z,10.20
2023-04-16T00:18:32.234Z,10.10
2023-04-16T00:21:00.769Z,10.10
2023-04-16T00:23:31.550Z,10.10
2023-04-16T00:26:01.169Z,10.00
2023-04-16T00:28:29.397Z,10.00
2023-04-16T00:30:57.797Z,10.00
2023-04-16T00:33:25.973Z,10.00
2023-04-16T00:35:59.931Z,10.00
2023-04-16T00:38:30.837Z,9.90
2023-04-16T00:41:04.628Z,10.00
2023-04-16T00:43:40.547Z,9.90
2023-04-16T00:46:10.227Z,9.90
2023-04-16T00:48:43.031Z,9.90
2023-04-16T00:51:14.966Z,9.90
2023-04-16T00:53:44.216Z,9.90
2023-04-16T00:56:16.931Z,10.00
2023-04-16T00:58:46.117Z,10.00
2023-04-16T01:01:18.124Z,10.00
2023-04-16T01:03:47.982Z,10.00
2023-04-16T01:06:21.586Z,10.00
2023-04-16T01:08:50.451Z,10.10
2023-04-16T01:11:24.638Z,10.00
2023-04-16T01:13:53.190Z,10.00
2023-04-16T01:16:27.124Z,9.90
2023-04-16T01:18:55.944Z,9.90
2023-04-16T01:21:27.767Z,9.90
2023-04-16T01:23:56.893Z,9.90
2023-04-16T01:26:29.246Z,10.00
2023-04-16T01:29:00.222Z,9.80
2023-04-16T01:31:30.646Z,9.80
2023-04-16T01:34:04.954Z,9.90
2023-04-16T01:36:40.711Z,9.80
2023-04-16T01:39:11.703Z,9.90
2023-04-16T01:41:47.023Z,9.90
2023-04-16T01:44:16.272Z,9.80
2023-04-16T01:46:46.319Z,9.90
2023-04-16T01:49:15.311Z,9.80
2023-04-16T01:51:45.430Z,9.80
2023-04-16T01:54:16.280Z,9.80
2023-04-16T01:56:45.125Z,9.70
2023-04-16T01:59:16.910Z,9.60
2023-04-16T02:01:45.579Z,9.80
2023-04-16T02:04:18.981Z,9.50
2023-04-16T02:06:49.084Z,9.40
2023-04-16T02:09:20.653Z,9.60
2023-04-16T02:11:49.694Z,9.30
2023-04-16T02:14:18.141Z,9.30
2023-04-16T02:16:46.779Z,9.20
2023-04-16T02:19:23.806Z,9.20
2023-04-16T02:21:54.865Z,9.10
2023-04-16T02:24:23.336Z,9.10
2023-04-16T02:26:54.094Z,9.10
2023-04-16T02:29:22.668Z,9.00
2023-04-16T02:32:00.725Z,8.90
2023-04-16T02:34:34.705Z,8.90
2023-04-16T02:37:04.844Z,8.80
2023-04-16T02:39:33.101Z,8.80
2023-04-16T02:42:07.521Z,8.70
2023-04-16T02:44:36.923Z,8.70
2023-04-16T02:47:05.417Z,8.70
2023-04-16T02:49:37.263Z,8.70
2023-04-16T02:52:07.537Z,8.70
2023-04-16T02:54:36.476Z,8.70
2023-04-16T02:57:06.363Z,8.50
2023-04-16T02:59:39.528Z,8.70
2023-04-16T03:02:08.448Z,8.70
2023-04-16T03:04:39.534Z,8.50
2023-04-16T03:07:09.919Z,8.60
2023-04-16T03:09:43.253Z,8.60
2023-04-16T03:12:12.643Z,8.60
2023-04-16T03:14:42.954Z,8.60
2023-04-16T03:17:11.810Z,8.50
2023-04-16T03:19:40.402Z,8.50
2023-04-16T03:22:10.315Z,8.40
2023-04-16T03:24:40.380Z,8.40
2023-04-16T03:27:12.262Z,8.40
2023-04-16T03:29:50.247Z,8.40
2023-04-16T03:32:19.548Z,8.40
2023-04-16T03:34:53.945Z,8.30
2023-04-16T03:37:24.230Z,8.20
2023-04-16T03:39:53.055Z,8.20
2023-04-16T03:42:21.585Z,8.20
2023-04-16T03:44:49.860Z,8.00
2023-04-16T03:47:19.652Z,8.10
2023-04-16T03:49:49.291Z,8.10
2023-04-16T03:52:21.401Z,8.10
2023-04-16T03:54:53.966Z,8.00
2023-04-16T03:57:30.021Z,7.90
2023-04-16T04:00:04.237Z,7.90
2023-04-16T04:02:43.540Z,7.80
2023-04-16T04:05:20.465Z,7.80
2023-04-16T04:07:49.758Z,7.80
2023-04-16T04:10:21.770Z,7.80
2023-04-16T04:12:54.202Z,7.70
2023-04-16T04:15:23.182Z,7.60
2023-04-16T04:17:54.721Z,7.60
2023-04-16T04:20:23.418Z,7.60
2023-04-16T04:22:56.893Z,7.60
2023-04-16T04:25:28.723Z,7.70
2023-04-16T04:28:02.686Z,7.60
2023-04-16T04:30:31.287Z,7.60
2023-04-16T04:32:59.748Z,7.50
2023-04-16T04:35:28.247Z,7.50
2023-04-16T04:37:56.707Z,7.60
2023-04-16T04:40:25.096Z,7.50
2023-04-16T04:42:55.608Z,7.50
2023-04-16T04:45:25.482Z,7.80
2023-04-16T04:47:55.107Z,7.60
2023-04-16T04:50:23.460Z,7.50
2023-04-16T04:52:51.573Z,7.50
2023-04-16T04:55:26.186Z,7.60
2023-04-16T04:57:59.112Z,7.50
2023-04-16T05:00:28.269Z,7.60
2023-04-16T05:03:03.521Z,7.60
2023-04-16T05:05:32.417Z,7.60
2023-04-16T05:08:04.188Z,7.60
2023-04-16T05:10:32.892Z,7.70
2023-04-16T05:13:03.135Z,7.60
2023-04-16T05:15:31.665Z,7.70
2023-04-16T05:18:03.899Z,7.70
2023-04-16T05:20:33.023Z,7.60
2023-04-16T05:23:09.030Z,7.70
2023-04-16T05:25:37.722Z,7.70
2023-04-16T05:28:14.716Z,7.70
2023-04-16T05:30:43.596Z,7.70
2023-04-16T05:33:12.739Z,7.70
2023-04-16T05:35:42.565Z,7.70
2023-04-16T05:38:11.530Z,7.70
2023-04-16T05:40:40.000Z,7.70
2023-04-16T05:43:08.874Z,7.60
2023-04-16T05:45:44.582Z,7.80
2023-04-16T05:48:18.901Z,7.80
2023-04-16T05:50:48.518Z,7.90
2023-04-16T05:53:28.399Z,7.90
2023-04-16T05:55:57.933Z,8.00
2023-04-16T05:58:28.903Z,7.90
2023-04-16T06:01:03.917Z,8.00
2023-04-16T06:03:35.061Z,8.10
2023-04-16T06:06:04.141Z,8.40
2023-04-16T06:08:32.621Z,8.20
2023-04-16T06:11:07.105Z,8.30
2023-04-16T06:13:36.038Z,8.40
2023-04-16T06:16:06.383Z,8.50
2023-04-16T06:18:34.632Z,8.40
2023-04-16T06:21:03.037Z,8.60
2023-04-16T06:23:31.232Z,8.70
2023-04-16T06:26:00.042Z,8.80
2023-04-16T06:28:28.208Z,8.90
2023-04-16T06:30:56.410Z,9.00
2023-04-16T06:33:28.474Z,9.10
2023-04-16T06:35:56.763Z,9.20
2023-04-16T06:38:25.136Z,9.30
2023-04-16T06:40:53.347Z,9.40
2023-04-16T06:43:21.634Z,9.50
2023-04-16T06:45:51.267Z,9.60
2023-04-16T06:48:19.420Z,9.70
2023-04-16T06:50:49.003Z,9.90
2023-04-16T06:53:17.169Z,9.90
2023-04-16T06:55:45.345Z,10.00
2023-04-16T06:58:16.422Z,10.20
2023-04-16T07:00:45.770Z,10.30
2023-04-16T07:03:14.716Z,10.40
2023-04-16T07:05:46.130Z,10.50
2023-04-16T07:08:20.667Z,10.50
2023-04-16T07:10:49.585Z,10.80
2023-04-16T07:13:20.898Z,11.00
2023-04-16T07:15:49.588Z,11.10
2023-04-16T07:18:21.824Z,11.20
2023-04-16T07:20:59.330Z,11.40
2023-04-16T07:23:32.770Z,11.40
2023-04-16T07:26:15.978Z,11.60
2023-04-16T07:28:44.734Z,11.60
2023-04-16T07:31:19.026Z,11.90
2023-04-16T07:37:14.223Z,12.10
2023-04-16T07:40:01.310Z,12.20
2023-04-16T07:42:37.659Z,12.40
2023-04-16T07:45:08.925Z,12.60
2023-04-16T07:47:47.057Z,12.60
2023-04-16T07:50:23.341Z,13.00
2023-04-16T07:53:00.847Z,13.00
2023-04-16T07:55:54.472Z,13.00
2023-04-16T07:58:26.107Z,13.30
2023-04-16T08:00:58.387Z,13.50
2023-04-16T08:03:58.481Z,13.70
2023-04-16T08:06:31.681Z,13.70
2023-04-16T08:09:05.347Z,14.20
2023-04-16T08:11:36.245Z,14.30
2023-04-16T08:14:10.623Z,14.50
2023-04-16T08:16:40.595Z,14.60
2023-04-16T08:19:09.152Z,14.70
2023-04-16T08:21:37.669Z,14.80
2023-04-16T08:24:06.205Z,14.90
2023-04-16T08:26:36.237Z,15.10
2023-04-16T08:29:04.498Z,15.20
2023-04-16T08:31:32.999Z,15.30
2023-04-16T08:34:02.172Z,15.40
2023-04-16T08:36:33.316Z,15.40
2023-04-16T08:39:12.333Z,15.50
2023-04-16T08:44:54.710Z,15.50
2023-04-16T08:47:55.411Z,15.80
2023-04-16T08:50:35.724Z,15.80
2023-04-16T08:53:23.521Z,16.20
2023-04-16T08:56:12.816Z,16.30
2023-04-16T08:58:48.266Z,16.50
2023-04-16T09:01:31.041Z,16.70
2023-04-16T09:04:05.918Z,16.70
2023-04-16T09:06:39.705Z,16.80
2023-04-16T09:09:14.916Z,16.90
2023-04-16T09:11:46.972Z,16.90
2023-04-16T09:14:36.376Z,17.00
2023-04-16T09:17:21.366Z,17.10
2023-04-16T09:23:26.614Z,17.30
2023-04-16T09:26:21.172Z,17.40
2023-04-16T09:33:30.003Z,17.60
2023-04-16T09:35:58.941Z,17.60
2023-04-16T09:38:28.681Z,17.80
2023-04-16T09:41:08.526Z,17.90
2023-04-16T09:43:36.931Z,18.00
2023-04-16T09:46:08.262Z,18.00
2023-04-16T09:48:38.849Z,18.10
2023-04-16T09:51:08.178Z,18.10
2023-04-16T09:53:40.077Z,18.10
2023-04-16T09:56:10.238Z,18.10
2023-04-16T09:58:58.388Z,18.30
2023-04-16T10:01:33.341Z,18.30
2023-04-16T10:04:24.530Z,18.40
2023-04-16T10:07:45.235Z,18.50
2023-04-16T10:10:50.667Z,18.50
2023-04-16T10:13:51.350Z,18.80
2023-04-16T10:17:10.644Z,18.90
2023-04-16T10:20:58.338Z,19.00
2023-04-16T10:27:01.619Z,19.30
2023-04-16T10:35:41.890Z,19.60
2023-04-16T10:42:17.769Z,19.80
2023-04-16T10:44:50.882Z,19.80
2023-04-16T10:47:30.462Z,19.80
2023-04-16T10:50:00.852Z,19.90
2023-04-16T10:52:35.459Z,20.00
2023-04-16T10:55:14.314Z,20.10
2023-04-16T10:57:58.165Z,20.10
2023-04-16T11:01:00.475Z,20.20
2023-04-16T11:03:59.120Z,20.00
2023-04-16T11:06:39.725Z,20.00
2023-04-16T11:09:30.136Z,20.00
2023-04-16T11:11:59.247Z,19.80
2023-04-16T11:14:33.712Z,19.80
2023-04-16T11:17:10.619Z,20.00
2023-04-16T11:19:55.269Z,20.00
2023-04-16T11:22:27.866Z,20.20
2023-04-16T11:26:02.269Z,20.40
2023-04-16T11:28:39.467Z,20.30
2023-04-16T11:31:26.291Z,20.50
2023-04-16T11:34:23.726Z,20.70
2023-04-16T11:37:02.546Z,21.00
2023-04-16T11:39:33.585Z,21.20
2023-04-16T11:42:16.888Z,21.20
2023-04-16T11:45:11.425Z,21.40
2023-04-16T11:48:15.888Z,21.60
2023-04-16T11:54:04.041Z,21.90
2023-04-16T11:57:05.187Z,22.10
2023-04-16T12:55:14.491Z,23.50
2023-04-16T13:57:35.112Z,19.70
2023-04-16T14:03:46.348Z,19.60
2023-04-16T14:06:20.714Z,19.90
2023-04-16T14:09:41.076Z,20.10
2023-04-16T14:12:24.177Z,20.00
2023-04-16T14:15:09.960Z,19.80
2023-04-16T14:17:47.796Z,19.70
2023-04-16T14:20:17.874Z,19.50
2023-04-16T14:25:56.483Z,19.10
2023-04-16T14:28:32.968Z,19.10
2023-04-16T14:37:49.516Z,18.00
2023-04-16T14:40:17.985Z,17.80
2023-04-16T14:42:48.245Z,17.70
2023-04-16T14:45:44.105Z,17.70
2023-04-16T14:48:40.631Z,17.90
2023-04-16T14:51:19.063Z,18.00
2023-04-16T14:53:49.560Z,17.90
2023-04-16T14:56:18.199Z,18.10
2023-04-16T14:58:52.832Z,17.80
2023-04-16T15:01:26.054Z,17.70
2023-04-16T15:08:30.564Z,17.50
2023-04-16T15:20:07.421Z,16.90
2023-04-16T15:23:25.391Z,16.80
2023-04-16T15:43:29.392Z,17.30
2023-04-16T15:45:58.149Z,16.90
2023-04-16T15:48:29.258Z,16.80
2023-04-16T15:50:58.093Z,16.80
2023-04-16T15:53:26.804Z,16.90
2023-04-16T15:56:00.282Z,17.00
2023-04-16T15:58:40.305Z,17.00
2023-04-16T16:01:41.940Z,17.20
2023-04-16T16:51:03.618Z,16.10
2023-04-16T17:14:52.186Z,15.20
2023-04-16T17:38:59.965Z,14.70
2023-04-16T17:41:28.350Z,14.50
2023-04-16T17:44:02.567Z,14.40
2023-04-16T17:46:31.512Z,14.40
2023-04-16T17:49:02.582Z,14.30
2023-04-16T17:51:31.181Z,14.20
2023-04-16T17:57:12.024Z,14.00
2023-04-16T18:03:51.062Z,13.90
2023-04-16T18:06:22.714Z,13.80
2023-04-16T18:08:51.225Z,13.70
2023-04-16T18:14:13.642Z,13.60
2023-04-16T18:16:42.170Z,13.90
2023-04-16T18:19:12.644Z,13.60
2023-04-16T18:21:45.378Z,13.60
2023-04-16T18:24:37.870Z,13.60
2023-04-16T18:31:10.106Z,13.60
2023-04-16T18:38:25.505Z,13.60
2023-04-16T18:41:22.576Z,13.30
2023-04-16T18:52:30.455Z,13.50
2023-04-16T18:58:01.723Z,13.50
2023-04-16T19:00:35.580Z,13.50
2023-04-16T19:16:14.064Z,13.40
2023-04-16T19:18:56.334Z,13.30
2023-04-16T19:32:34.380Z,13.20
2023-04-16T19:36:31.914Z,13.20
2023-04-16T19:40:09.251Z,13.20
2023-04-16T19:43:33.810Z,13.10
2023-04-16T19:46:07.809Z,13.10
2023-04-16T19:48:36.572Z,13.20
2023-04-16T19:51:06.784Z,13.20
2023-04-16T19:54:04.065Z,13.20
2023-04-16T19:56:42.822Z,13.20
2023-04-16T19:59:14.075Z,13.30
2023-04-16T20:01:43.826Z,13.40
2023-04-16T20:04:18.599Z,13.30
2023-04-16T20:06:47.376Z,13.30
2023-04-16T20:09:55.387Z,13.30
2023-04-16T20:12:37.904Z,13.30
2023-04-16T20:15:15.184Z,13.30
2023-04-16T20:22:11.561Z,13.30
2023-04-16T20:32:13.510Z,13.30
2023-04-16T20:36:29.153Z,13.30
2023-04-16T20:39:20.182Z,13.30
2023-04-16T20:42:13.176Z,13.30
2023-04-16T20:44:54.199Z,13.30
2023-04-16T20:56:30.453Z,13.00
2023-04-16T20:59:58.252Z,13.30
2023-04-16T21:03:43.639Z,13.20
2023-04-16T21:09:46.631Z,13.20
2023-04-16T21:32:37.703Z,13.10
2023-04-16T21:36:20.628Z,13.10
2023-04-16T21:39:40.955Z,13.20
2023-04-16T21:46:54.012Z,13.00
2023-04-16T21:49:31.173Z,13.00
2023-04-16T21:52:03.865Z,13.00
2023-04-16T21:54:44.515Z,13.10
2023-04-16T22:01:11.470Z,13.00
2023-04-16T22:04:31.246Z,13.00
2023-04-16T22:10:34.170Z,12.90
2023-04-16T22:13:35.530Z,12.90
2023-04-16T22:16:25.154Z,13.00
2023-04-16T22:19:27.409Z,12.90
2023-04-16T22:22:09.611Z,13.00
2023-04-16T22:24:49.614Z,13.00
2023-04-16T22:34:52.329Z,12.90
2023-04-16T22:38:02.294Z,12.90
2023-04-16T22:40:32.146Z,12.90
2023-04-16T22:43:00.431Z,12.80
2023-04-16T22:45:28.674Z,12.90
2023-04-16T22:47:56.909Z,12.80
2023-04-16T22:50:25.158Z,12.80
2023-04-16T22:52:54.790Z,12.80
2023-04-16T22:55:23.466Z,12.80
2023-04-16T22:57:51.639Z,12.70
2023-04-16T23:03:34.411Z,12.60
2023-04-16T23:06:13.735Z,12.50
2023-04-16T23:09:15.134Z,12.60
2023-04-16T23:12:50.942Z,12.60
2023-04-16T23:18:55.834Z,12.70
2023-04-16T23:21:30.864Z,12.70
2023-04-16T23:48:29.783Z,12.30
